Sherando, Virginia
Current Conditions -  °F | °C
As of 9:35 PM on Friday 28 Nov 2014 (Local Time) from KW13 Reporting Station
Scattered Clouds Scattered Clouds  
Wind Chill: 22°   Ceiling: Unl
Heat Index: 28°   Visibility: 10mi
Dew Point: 16°   Wind: 5mph
Humidity: 61%   Direction: 170°S
Pressure: 30.21"   Gusts: NA
Location:  37.9643°N, 78.9678°W
Report Text: KW13 290235Z AUTO 17004KT 10SM SCT120 M02/M09 A3021 RMK AO1 T10251090
Loading
Personal Weather Stations






























Interactive Weather Map New forecast layout! Learn more

10-Day Weather Forecast

Advertisements
Track Severe Weather on mobile